createdAt,value
2022-10-24T00:00:09.504Z,27.05
2022-10-24T00:00:32.431Z,26.23
2022-10-24T00:00:54.512Z,25.33
2022-10-24T00:01:18.681Z,23.60
2022-10-24T00:01:40.478Z,25.67
2022-10-24T00:02:02.631Z,26.60
2022-10-24T00:02:24.444Z,27.58
2022-10-24T00:02:46.336Z,27.77
2022-10-24T00:03:08.555Z,27.48
2022-10-24T00:03:30.307Z,28.83
2022-10-24T00:03:52.168Z,29.95
2022-10-24T00:04:13.945Z,27.88
2022-10-24T00:04:37.123Z,26.10
2022-10-24T00:04:58.849Z,27.98
2022-10-24T00:05:20.990Z,28.40
2022-10-24T00:05:46.990Z,27.75
2022-10-24T00:06:09.966Z,27.15
2022-10-24T00:06:32.056Z,26.42
2022-10-24T00:06:53.846Z,28.10
2022-10-24T00:07:16.294Z,26.02
2022-10-24T00:07:38.422Z,26.33
2022-10-24T00:08:00.627Z,28.58
2022-10-24T00:08:22.382Z,28.05
2022-10-24T00:08:44.667Z,26.95
2022-10-24T00:09:06.732Z,26.77
2022-10-24T00:09:28.531Z,29.35
2022-10-24T00:09:50.667Z,28.17
2022-10-24T00:10:13.823Z,27.63
2022-10-24T00:10:36.985Z,28.38
2022-10-24T00:10:58.755Z,28.15
2022-10-24T00:11:26.572Z,27.85
2022-10-24T00:11:48.298Z,25.02
2022-10-24T00:12:10.302Z,26.80
2022-10-24T00:12:32.328Z,27.77
2022-10-24T00:12:54.815Z,27.60
2022-10-24T00:13:18.006Z,26.10
2022-10-24T00:13:40.287Z,27.80
2022-10-24T00:14:02.394Z,28.23
2022-10-24T00:14:24.636Z,27.73
2022-10-24T00:14:46.766Z,27.65
2022-10-24T00:15:08.976Z,27.05
2022-10-24T00:15:30.953Z,26.33
2022-10-24T00:15:53.681Z,27.27
2022-10-24T00:16:15.843Z,26.63
2022-10-24T00:16:37.623Z,27.30
2022-10-24T00:16:59.848Z,27.08
2022-10-24T00:17:21.711Z,27.48
2022-10-24T00:17:43.476Z,27.08
2022-10-24T00:18:05.667Z,25.30
2022-10-24T00:18:27.476Z,26.92
2022-10-24T00:18:49.336Z,28.27
2022-10-24T00:19:11.112Z,27.95
2022-10-24T00:19:32.993Z,27.15
2022-10-24T00:19:54.823Z,26.67
2022-10-24T00:20:16.551Z,26.65
2022-10-24T00:20:39.138Z,26.90
2022-10-24T00:21:00.959Z,26.43
2022-10-24T00:21:23.135Z,26.30
2022-10-24T00:21:44.937Z,26.50
2022-10-24T00:22:06.846Z,27.15
2022-10-24T00:22:28.699Z,27.15
2022-10-24T00:22:50.469Z,27.08
2022-10-24T00:23:13.658Z,26.50
2022-10-24T00:23:36.075Z,26.73
2022-10-24T00:23:58.208Z,25.95
2022-10-24T00:24:20.058Z,25.58
2022-10-24T00:24:42.258Z,26.85
2022-10-24T00:25:04.620Z,25.92
2022-10-24T00:25:26.733Z,26.92
2022-10-24T00:25:48.486Z,26.38
2022-10-24T00:26:11.854Z,24.92
2022-10-24T00:26:33.920Z,23.90
2022-10-24T00:26:56.060Z,24.38
2022-10-24T00:27:18.272Z,25.85
2022-10-24T00:27:40.401Z,26.02
2022-10-24T00:28:02.512Z,25.27
2022-10-24T00:28:24.343Z,26.55
2022-10-24T00:28:46.816Z,24.83
2022-10-24T00:29:08.741Z,23.27
2022-10-24T00:29:30.891Z,26.67
2022-10-24T00:29:52.640Z,26.90
2022-10-24T00:30:14.798Z,25.30
2022-10-24T00:30:36.591Z,23.98
2022-10-24T00:30:58.573Z,25.55
2022-10-24T00:31:20.395Z,25.77
2022-10-24T00:31:42.375Z,25.95
2022-10-24T00:32:04.645Z,26.70
2022-10-24T00:32:26.373Z,25.50
2022-10-24T00:32:48.457Z,25.20
2022-10-24T00:33:10.208Z,25.30
2022-10-24T00:33:32.626Z,26.45
2022-10-24T00:33:56.704Z,25.55
2022-10-24T00:34:18.467Z,26.05
2022-10-24T00:34:40.729Z,24.25
2022-10-24T00:35:02.908Z,26.63
2022-10-24T00:35:24.677Z,27.38
2022-10-24T00:35:46.945Z,27.08
2022-10-24T00:36:22.572Z,25.45
2022-10-24T00:36:44.310Z,26.02
2022-10-24T00:37:06.646Z,27.25
2022-10-24T00:37:28.426Z,25.50
2022-10-24T00:37:50.598Z,26.33
2022-10-24T00:38:12.356Z,25.35
2022-10-24T00:38:34.469Z,25.52
2022-10-24T00:38:56.318Z,24.20
2022-10-24T00:39:18.466Z,23.33
2022-10-24T00:39:40.268Z,25.50
2022-10-24T00:40:02.743Z,25.33
2022-10-24T00:40:24.546Z,24.40
2022-10-24T00:40:46.302Z,25.77
2022-10-24T00:41:21.893Z,25.60
2022-10-24T00:41:43.884Z,25.70
2022-10-24T00:42:06.216Z,25.20
2022-10-24T00:42:27.976Z,25.48
2022-10-24T00:42:50.060Z,25.48
2022-10-24T00:43:22.978Z,25.58
2022-10-24T00:43:45.536Z,26.20
2022-10-24T00:44:27.464Z,25.88
2022-10-24T00:44:50.614Z,26.10
2022-10-24T00:45:31.458Z,26.40
2022-10-24T00:45:55.177Z,26.30
2022-10-24T00:46:19.469Z,25.02
2022-10-24T00:46:45.545Z,25.15
2022-10-24T00:47:14.972Z,24.27
2022-10-24T00:47:36.786Z,24.80
2022-10-24T00:47:58.923Z,25.77
2022-10-24T00:48:37.939Z,26.02
2022-10-24T00:49:00.366Z,25.95
2022-10-24T00:49:27.235Z,25.38
2022-10-24T00:49:55.340Z,25.92
2022-10-24T00:50:17.066Z,25.73
2022-10-24T00:50:39.235Z,24.55
2022-10-24T00:51:06.601Z,25.33
2022-10-24T00:51:32.681Z,25.13
2022-10-24T00:51:58.896Z,25.17
2022-10-24T00:52:27.894Z,24.83
2022-10-24T00:52:50.199Z,24.67
2022-10-24T00:53:12.765Z,25.63
2022-10-24T00:53:38.698Z,26.27
2022-10-24T00:54:03.557Z,26.05
2022-10-24T00:54:25.579Z,26.65
2022-10-24T00:54:47.880Z,25.63
2022-10-24T00:55:11.669Z,25.70
2022-10-24T00:55:33.788Z,25.73
2022-10-24T00:55:59.312Z,24.98
2022-10-24T00:56:25.709Z,25.95
2022-10-24T00:57:16.640Z,25.20
2022-10-24T00:57:42.249Z,25.80
2022-10-24T00:58:05.384Z,23.85
2022-10-24T00:58:30.365Z,24.85
2022-10-24T00:58:53.717Z,25.75
2022-10-24T00:59:17.306Z,25.42
2022-10-24T00:59:41.403Z,26.85
2022-10-24T01:00:13.777Z,25.13
2022-10-24T01:00:35.768Z,23.30
2022-10-24T01:00:58.601Z,24.80
2022-10-24T01:01:20.646Z,24.83
2022-10-24T01:01:44.347Z,25.02
2022-10-24T01:02:06.126Z,23.88
2022-10-24T01:02:27.954Z,24.27
2022-10-24T01:02:50.208Z,25.40
2022-10-24T01:03:12.948Z,24.95
2022-10-24T01:03:34.994Z,23.73
2022-10-24T01:03:56.945Z,23.73
2022-10-24T01:04:18.674Z,25.30
2022-10-24T01:04:40.788Z,24.63
2022-10-24T01:05:03.686Z,24.92
2022-10-24T01:05:28.237Z,24.67
2022-10-24T01:06:14.551Z,25.55
2022-10-24T01:07:00.447Z,25.20
2022-10-24T01:08:01.165Z,25.63
2022-10-24T01:08:29.266Z,25.23
2022-10-24T01:09:14.007Z,25.90
2022-10-24T01:09:41.434Z,25.70
2022-10-24T01:10:03.520Z,25.23
2022-10-24T01:10:42.923Z,25.05
2022-10-24T01:11:25.474Z,25.98
2022-10-24T01:11:56.162Z,25.13
2022-10-24T01:12:23.805Z,24.38
2022-10-24T01:13:09.193Z,24.83
2022-10-24T01:14:03.027Z,25.00
2022-10-24T01:15:02.073Z,24.83
2022-10-24T01:15:26.932Z,25.92
2022-10-24T01:16:08.233Z,24.83
2022-10-24T01:16:38.413Z,25.25
2022-10-24T01:17:27.819Z,25.52
2022-10-24T01:17:56.762Z,25.75
2022-10-24T01:18:39.634Z,25.92
2022-10-24T01:19:16.346Z,25.60
2022-10-24T01:19:40.921Z,25.55
2022-10-24T01:20:23.608Z,25.08
2022-10-24T01:21:03.609Z,26.98
2022-10-24T01:21:43.065Z,25.38
2022-10-24T01:22:13.023Z,26.25
2022-10-24T01:22:52.481Z,25.85
2022-10-24T01:23:20.165Z,26.25
2022-10-24T01:23:45.343Z,25.58
2022-10-24T01:24:24.006Z,25.50
2022-10-24T01:25:42.246Z,26.10
2022-10-24T01:26:21.740Z,25.02
2022-10-24T01:26:59.024Z,25.55
2022-10-24T01:27:29.805Z,25.75
2022-10-24T01:28:20.368Z,25.52
2022-10-24T01:29:01.729Z,25.35
2022-10-24T01:29:23.404Z,25.23
2022-10-24T01:29:51.187Z,24.65
2022-10-24T01:30:14.221Z,24.48
2022-10-24T01:30:43.894Z,24.30
2022-10-24T01:31:14.135Z,24.17
2022-10-24T01:31:49.749Z,24.90
2022-10-24T01:32:32.084Z,24.52
2022-10-24T01:33:09.516Z,24.88
2022-10-24T01:33:40.284Z,25.00
2022-10-24T01:34:11.120Z,24.80
2022-10-24T01:34:45.428Z,24.60
2022-10-24T01:35:18.863Z,24.67
2022-10-24T01:35:47.995Z,24.87
2022-10-24T01:36:16.135Z,24.35
2022-10-24T01:37:09.776Z,25.63
2022-10-24T01:37:38.141Z,25.13
2022-10-24T01:38:03.246Z,24.05
2022-10-24T01:38:45.627Z,24.02
2022-10-24T01:39:13.503Z,24.55
2022-10-24T01:39:38.751Z,24.27
2022-10-24T01:40:21.685Z,24.50
2022-10-24T01:40:53.120Z,24.75
2022-10-24T01:41:21.063Z,25.48
2022-10-24T01:41:44.915Z,24.75
2022-10-24T01:42:09.205Z,24.33
2022-10-24T01:42:32.927Z,24.88
2022-10-24T01:42:57.644Z,25.55
2022-10-24T01:43:24.815Z,25.02
2022-10-24T01:43:50.714Z,24.73
2022-10-24T01:44:24.457Z,25.33
2022-10-24T01:44:50.436Z,25.85
2022-10-24T01:45:16.430Z,25.73
2022-10-24T01:45:41.949Z,26.45
2022-10-24T01:46:16.934Z,26.65
2022-10-24T01:46:42.394Z,26.17
2022-10-24T01:47:15.951Z,27.38
2022-10-24T01:47:39.921Z,25.98
2022-10-24T01:48:03.588Z,25.73
2022-10-24T01:48:27.093Z,26.73
2022-10-24T01:48:55.089Z,26.92
2022-10-24T01:49:18.415Z,26.08
2022-10-24T01:49:41.880Z,25.92
2022-10-24T01:50:06.587Z,26.95
2022-10-24T01:50:29.525Z,26.50
2022-10-24T01:50:54.559Z,26.38
2022-10-24T01:51:19.318Z,26.55
2022-10-24T01:51:42.288Z,26.80
2022-10-24T01:52:10.008Z,27.13
2022-10-24T01:52:33.879Z,25.92
2022-10-24T01:52:58.325Z,25.63
2022-10-24T01:53:24.953Z,26.02
2022-10-24T01:53:48.562Z,26.55
2022-10-24T01:54:11.545Z,26.40
2022-10-24T01:54:33.975Z,26.83
2022-10-24T01:54:56.222Z,26.58
2022-10-24T01:55:18.327Z,26.65
2022-10-24T01:55:40.835Z,26.15
2022-10-24T01:56:03.289Z,26.48
2022-10-24T01:56:28.274Z,26.67
2022-10-24T01:56:51.018Z,26.10
2022-10-24T01:57:14.257Z,26.50
2022-10-24T01:57:36.028Z,26.13
2022-10-24T01:57:57.782Z,26.23
2022-10-24T01:58:19.487Z,26.55
2022-10-24T01:58:41.235Z,26.65
2022-10-24T01:59:08.581Z,27.00
2022-10-24T01:59:30.686Z,27.45
2022-10-24T01:59:52.841Z,27.63
2022-10-24T02:00:24.986Z,26.40
2022-10-24T02:00:50.565Z,26.20
2022-10-24T02:01:16.562Z,27.45
2022-10-24T02:01:39.570Z,26.45
2022-10-24T02:02:21.946Z,27.40
2022-10-24T02:02:46.466Z,26.77
2022-10-24T02:03:16.811Z,26.58
2022-10-24T02:03:43.417Z,27.20
2022-10-24T02:04:10.779Z,27.75
2022-10-24T02:04:36.150Z,27.52
2022-10-24T02:05:04.102Z,26.42
2022-10-24T02:05:28.335Z,26.88
2022-10-24T02:05:54.020Z,26.83
2022-10-24T02:06:25.728Z,27.27
2022-10-24T02:06:48.386Z,26.75
2022-10-24T02:07:12.873Z,27.23
2022-10-24T02:07:37.140Z,27.42
2022-10-24T02:08:02.775Z,27.95
2022-10-24T02:08:30.920Z,28.88
2022-10-24T02:08:58.460Z,27.02
2022-10-24T02:09:21.474Z,27.92
2022-10-24T02:09:45.185Z,27.15
2022-10-24T02:10:12.966Z,27.92
2022-10-24T02:10:39.588Z,29.52
2022-10-24T02:11:05.757Z,28.88
2022-10-24T02:11:27.932Z,27.38
2022-10-24T02:11:50.513Z,28.27
2022-10-24T02:12:16.040Z,27.98
2022-10-24T02:12:40.296Z,29.10
2022-10-24T02:13:31.594Z,29.45
2022-10-24T02:14:16.509Z,29.50
2022-10-24T02:14:46.605Z,28.38
2022-10-24T02:15:11.727Z,28.73
2022-10-24T02:15:35.804Z,28.60
2022-10-24T02:15:59.273Z,28.60
2022-10-24T02:16:21.602Z,28.27
2022-10-24T02:16:44.862Z,28.35
2022-10-24T02:17:07.290Z,28.40
2022-10-24T02:17:30.200Z,28.17
2022-10-24T02:17:53.306Z,28.52
2022-10-24T02:18:16.017Z,28.70
2022-10-24T02:18:39.559Z,29.58
2022-10-24T02:19:01.624Z,28.92
2022-10-24T02:19:23.416Z,30.05
2022-10-24T02:19:46.649Z,30.13
2022-10-24T02:20:09.199Z,30.05
2022-10-24T02:20:35.798Z,29.92
2022-10-24T02:21:25.940Z,30.48
2022-10-24T02:22:19.008Z,30.17
2022-10-24T02:22:59.952Z,30.00
2022-10-24T02:23:51.992Z,30.55
2022-10-24T02:24:24.936Z,30.10
2022-10-24T02:24:53.990Z,29.77
2022-10-24T02:25:33.155Z,31.13
2022-10-24T02:25:58.943Z,29.65
2022-10-24T02:26:31.141Z,30.27
2022-10-24T02:27:07.082Z,29.52
2022-10-24T02:28:11.010Z,30.08
2022-10-24T02:28:35.982Z,31.13
2022-10-24T02:29:01.731Z,31.55
2022-10-24T02:29:33.014Z,30.10
2022-10-24T02:29:59.077Z,30.58
2022-10-24T02:30:24.022Z,31.35
2022-10-24T02:30:57.264Z,30.83
2022-10-24T02:31:22.801Z,31.02
2022-10-24T02:31:52.942Z,31.25
2022-10-24T02:32:20.556Z,30.98
2022-10-24T02:32:45.488Z,30.15
2022-10-24T02:33:09.184Z,30.08
2022-10-24T02:33:32.530Z,30.23
2022-10-24T02:33:55.033Z,30.50
2022-10-24T02:34:19.397Z,30.48
2022-10-24T02:34:42.949Z,31.38
2022-10-24T02:35:05.828Z,31.08
2022-10-24T02:35:39.674Z,30.45
2022-10-24T02:36:03.396Z,30.35
2022-10-24T02:36:29.207Z,30.58
2022-10-24T02:36:53.591Z,30.20
2022-10-24T02:37:16.799Z,30.90
2022-10-24T02:37:47.571Z,29.17
2022-10-24T02:38:27.470Z,29.55
2022-10-24T02:38:51.492Z,30.42
2022-10-24T02:39:14.276Z,30.60
2022-10-24T02:39:37.338Z,29.90
2022-10-24T02:40:00.074Z,30.05
2022-10-24T02:40:22.826Z,29.92
2022-10-24T02:40:45.266Z,29.70
2022-10-24T02:41:11.883Z,30.23
2022-10-24T02:41:35.861Z,29.90
2022-10-24T02:41:58.828Z,29.33
2022-10-24T02:42:22.200Z,29.20
2022-10-24T02:42:45.979Z,30.08
2022-10-24T02:43:08.901Z,29.77
2022-10-24T02:43:32.801Z,29.42
2022-10-24T02:43:56.230Z,29.52
2022-10-24T02:44:18.930Z,29.90
2022-10-24T02:44:42.524Z,29.45
2022-10-24T02:45:05.456Z,29.30
2022-10-24T02:45:28.704Z,28.77
2022-10-24T02:45:54.041Z,30.10
2022-10-24T02:46:16.445Z,30.27
2022-10-24T02:46:39.497Z,29.52
2022-10-24T02:47:02.665Z,30.02
2022-10-24T02:47:27.058Z,30.77
2022-10-24T02:47:50.611Z,29.67
2022-10-24T02:48:15.029Z,30.13
2022-10-24T02:48:39.832Z,28.83
2022-10-24T02:49:02.908Z,29.67
2022-10-24T02:49:25.113Z,29.52
2022-10-24T02:49:47.379Z,29.15
2022-10-24T02:50:09.801Z,28.42
2022-10-24T02:50:32.689Z,28.85
2022-10-24T02:50:54.816Z,28.90
2022-10-24T02:51:20.301Z,29.80
2022-10-24T02:51:44.927Z,28.75
2022-10-24T02:52:07.377Z,28.33
2022-10-24T02:52:30.406Z,28.20
2022-10-24T02:52:52.134Z,28.80
2022-10-24T02:53:15.895Z,28.35
2022-10-24T02:53:38.066Z,28.48
2022-10-24T02:54:00.710Z,28.65
2022-10-24T02:54:22.679Z,28.65
2022-10-24T02:54:44.515Z,29.23
2022-10-24T02:55:06.897Z,29.38
2022-10-24T02:55:28.676Z,29.27
2022-10-24T02:55:50.506Z,28.85
2022-10-24T02:56:12.289Z,29.00
2022-10-24T02:56:34.738Z,28.92
2022-10-24T02:57:01.341Z,28.75
2022-10-24T02:57:23.832Z,28.83
2022-10-24T02:57:45.934Z,29.55
2022-10-24T02:58:07.743Z,28.67
2022-10-24T02:58:29.850Z,28.45
2022-10-24T02:58:51.570Z,28.80
2022-10-24T02:59:13.401Z,29.05
2022-10-24T02:59:35.184Z,28.75
2022-10-24T02:59:57.306Z,28.10
2022-10-24T03:00:19.502Z,28.33
2022-10-24T03:00:41.328Z,28.40
2022-10-24T03:01:03.642Z,28.08
2022-10-24T03:01:25.764Z,28.33
2022-10-24T03:01:47.600Z,28.58
2022-10-24T03:02:11.067Z,28.55
2022-10-24T03:02:33.863Z,28.65
2022-10-24T03:02:56.073Z,28.83
2022-10-24T03:03:17.852Z,28.75
2022-10-24T03:03:39.641Z,29.88
2022-10-24T03:04:01.791Z,29.13
2022-10-24T03:04:23.919Z,29.08
2022-10-24T03:04:46.037Z,28.40
2022-10-24T03:05:08.111Z,29.00
2022-10-24T03:05:30.230Z,28.90
2022-10-24T03:05:51.982Z,28.00
2022-10-24T03:06:13.693Z,29.30
2022-10-24T03:06:35.510Z,29.33
2022-10-24T03:06:57.260Z,29.70
2022-10-24T03:07:19.054Z,30.00
2022-10-24T03:07:40.961Z,29.38
2022-10-24T03:08:03.088Z,29.40
2022-10-24T03:08:25.199Z,29.65
2022-10-24T03:08:47.297Z,29.20
2022-10-24T03:09:09.412Z,28.80
2022-10-24T03:09:31.182Z,29.48
2022-10-24T03:09:52.893Z,29.10
2022-10-24T03:10:14.725Z,28.63
2022-10-24T03:10:36.475Z,28.75
2022-10-24T03:10:58.292Z,28.60
2022-10-24T03:11:20.028Z,29.65
2022-10-24T03:11:41.839Z,29.23
2022-10-24T03:12:04.626Z,29.58
2022-10-24T03:12:26.423Z,28.58
2022-10-24T03:12:48.211Z,27.55
2022-10-24T03:13:09.907Z,28.25
2022-10-24T03:13:32.064Z,29.05
2022-10-24T03:13:54.173Z,28.20
2022-10-24T03:14:16.575Z,28.85
2022-10-24T03:14:38.685Z,29.33
2022-10-24T03:15:00.777Z,28.25
2022-10-24T03:15:22.613Z,28.05
2022-10-24T03:15:44.446Z,28.38
2022-10-24T03:16:08.940Z,28.80
2022-10-24T03:16:34.051Z,28.38
2022-10-24T03:16:56.241Z,28.25
2022-10-24T03:17:17.952Z,28.20
2022-10-24T03:17:39.740Z,28.38
2022-10-24T03:18:01.471Z,28.23
2022-10-24T03:18:23.342Z,27.45
2022-10-24T03:18:45.174Z,28.17
2022-10-24T03:19:06.889Z,27.90
2022-10-24T03:19:28.604Z,28.02
2022-10-24T03:19:50.399Z,28.40
2022-10-24T03:20:12.520Z,27.90
2022-10-24T03:20:34.640Z,28.75
2022-10-24T03:20:56.432Z,28.08
2022-10-24T03:21:18.550Z,28.20
2022-10-24T03:21:41.608Z,28.33
2022-10-24T03:22:03.352Z,28.83
2022-10-24T03:22:29.841Z,28.17
2022-10-24T03:22:52.852Z,28.10
2022-10-24T03:23:14.860Z,28.45
2022-10-24T03:23:36.583Z,28.75
2022-10-24T03:23:58.428Z,27.70
2022-10-24T03:24:31.022Z,28.45
2022-10-24T03:25:03.547Z,28.65
2022-10-24T03:25:25.261Z,28.23
2022-10-24T03:25:47.038Z,28.83
2022-10-24T03:26:08.871Z,27.92
2022-10-24T03:26:31.024Z,28.60
2022-10-24T03:26:53.215Z,27.45
2022-10-24T03:27:15.207Z,27.58
2022-10-24T03:27:36.979Z,28.02
2022-10-24T03:27:58.877Z,27.52
2022-10-24T03:28:20.984Z,27.58
2022-10-24T03:28:42.717Z,27.05
2022-10-24T03:29:04.942Z,27.80
2022-10-24T03:29:26.726Z,27.55
2022-10-24T03:29:48.477Z,28.08
2022-10-24T03:30:10.936Z,28.55
2022-10-24T03:30:33.063Z,28.58
2022-10-24T03:30:56.323Z,27.90
2022-10-24T03:31:18.106Z,27.17
2022-10-24T03:31:41.308Z,28.10
2022-10-24T03:32:03.509Z,27.63
2022-10-24T03:32:51.912Z,26.77
2022-10-24T03:33:13.669Z,27.55
2022-10-24T03:33:35.684Z,26.98
2022-10-24T03:33:57.941Z,27.08
2022-10-24T03:34:20.047Z,26.70
2022-10-24T03:34:42.335Z,26.30
2022-10-24T03:35:04.506Z,26.38
2022-10-24T03:35:26.622Z,26.73
2022-10-24T03:35:52.164Z,27.13
2022-10-24T03:36:13.911Z,27.27
2022-10-24T03:36:35.916Z,26.35
2022-10-24T03:36:58.023Z,26.25
2022-10-24T03:37:19.751Z,26.42
2022-10-24T03:37:42.361Z,26.70
2022-10-24T03:38:04.517Z,25.63
2022-10-24T03:38:26.672Z,25.67
2022-10-24T03:38:48.419Z,26.13
2022-10-24T03:39:10.329Z,27.38
2022-10-24T03:39:32.494Z,27.63
2022-10-24T03:39:54.258Z,27.42
2022-10-24T03:40:16.060Z,26.98
2022-10-24T03:40:38.412Z,25.50
2022-10-24T03:41:00.627Z,26.15
2022-10-24T03:41:22.433Z,26.35
2022-10-24T03:41:44.581Z,27.30
2022-10-24T03:42:06.359Z,25.75
2022-10-24T03:42:28.305Z,27.02
2022-10-24T03:42:50.011Z,25.80
2022-10-24T03:43:11.749Z,25.63
2022-10-24T03:43:33.617Z,26.33
2022-10-24T03:43:55.726Z,25.88
2022-10-24T03:44:17.904Z,26.20
2022-10-24T03:44:40.783Z,25.87
2022-10-24T03:45:02.928Z,26.48
2022-10-24T03:45:25.067Z,26.38
2022-10-24T03:45:47.363Z,26.10
2022-10-24T03:46:09.495Z,26.55
2022-10-24T03:46:31.219Z,26.15
2022-10-24T03:46:53.374Z,26.08
2022-10-24T03:47:15.707Z,26.42
2022-10-24T03:47:37.838Z,26.38
2022-10-24T03:47:59.845Z,26.15
2022-10-24T03:48:21.968Z,26.02
2022-10-24T03:48:43.771Z,26.50
2022-10-24T03:49:05.500Z,27.08
2022-10-24T03:49:27.685Z,27.15
2022-10-24T03:49:49.820Z,25.90
2022-10-24T03:50:12.076Z,26.50
2022-10-24T03:50:34.263Z,26.88
2022-10-24T03:50:56.030Z,26.92
2022-10-24T03:51:18.136Z,26.50
2022-10-24T03:51:39.885Z,26.52
2022-10-24T03:52:02.077Z,26.83
2022-10-24T03:52:23.784Z,27.20
2022-10-24T03:52:46.369Z,27.95
2022-10-24T03:53:08.383Z,27.77
2022-10-24T03:53:30.493Z,26.85
2022-10-24T03:53:52.606Z,27.38
2022-10-24T03:54:15.332Z,27.95
2022-10-24T03:54:38.719Z,26.55
2022-10-24T03:55:00.939Z,27.40
2022-10-24T03:55:23.155Z,27.35
2022-10-24T03:55:44.914Z,26.70
2022-10-24T03:56:07.214Z,27.30
2022-10-24T03:56:29.336Z,27.88
2022-10-24T03:56:51.162Z,27.48
2022-10-24T03:57:13.004Z,27.08
2022-10-24T03:57:35.258Z,27.63
2022-10-24T03:57:57.106Z,27.17
2022-10-24T03:58:19.246Z,27.35
2022-10-24T03:58:40.984Z,27.00
2022-10-24T03:59:03.139Z,26.85
2022-10-24T03:59:24.853Z,27.70
2022-10-24T03:59:46.639Z,27.25
2022-10-24T04:00:09.195Z,27.95
2022-10-24T04:00:32.494Z,27.05
2022-10-24T04:00:57.071Z,26.77
2022-10-24T04:01:19.517Z,26.58
2022-10-24T04:01:41.783Z,26.88
2022-10-24T04:02:04.623Z,26.17
2022-10-24T04:02:26.457Z,25.95
2022-10-24T04:02:50.513Z,26.42
2022-10-24T04:03:12.640Z,26.75
2022-10-24T04:03:34.756Z,26.63
2022-10-24T04:03:56.483Z,26.52
2022-10-24T04:04:18.256Z,26.38
2022-10-24T04:04:40.385Z,26.45
2022-10-24T04:05:02.185Z,24.90
2022-10-24T04:05:23.931Z,26.23
2022-10-24T04:05:45.679Z,26.58
2022-10-24T04:06:07.737Z,26.75
2022-10-24T04:06:31.398Z,26.77
2022-10-24T04:06:56.277Z,26.90
2022-10-24T04:07:18.172Z,26.75
2022-10-24T04:07:40.377Z,26.17
2022-10-24T04:08:02.673Z,26.92
2022-10-24T04:08:24.784Z,26.45
2022-10-24T04:08:46.940Z,25.55
2022-10-24T04:09:08.746Z,25.98
2022-10-24T04:09:30.876Z,26.35
2022-10-24T04:09:52.606Z,26.55
2022-10-24T04:10:14.382Z,26.15
2022-10-24T04:10:36.214Z,25.48
2022-10-24T04:10:57.945Z,26.75
2022-10-24T04:11:20.115Z,26.35
2022-10-24T04:11:41.842Z,26.10
2022-10-24T04:12:04.203Z,25.50
2022-10-24T04:12:26.340Z,25.55
2022-10-24T04:12:48.124Z,26.23
2022-10-24T04:13:10.082Z,26.50
2022-10-24T04:13:32.246Z,25.70
2022-10-24T04:13:54.422Z,26.13
2022-10-24T04:14:16.199Z,26.23
2022-10-24T04:14:38.411Z,26.17
2022-10-24T04:15:03.955Z,25.92
2022-10-24T04:15:27.207Z,24.92
2022-10-24T04:15:48.954Z,24.95
2022-10-24T04:16:11.131Z,25.40
2022-10-24T04:16:34.816Z,25.60
2022-10-24T04:16:56.732Z,25.60
2022-10-24T04:17:18.860Z,25.55
2022-10-24T04:17:40.693Z,24.45
2022-10-24T04:18:02.835Z,24.42
2022-10-24T04:18:24.612Z,24.92
2022-10-24T04:18:46.421Z,25.10
2022-10-24T04:19:08.206Z,24.80
2022-10-24T04:19:30.320Z,25.48
2022-10-24T04:19:52.573Z,24.85
2022-10-24T04:20:14.394Z,24.85
2022-10-24T04:20:36.667Z,24.98
2022-10-24T04:20:58.622Z,25.33
2022-10-24T04:21:22.028Z,25.00
2022-10-24T04:21:44.778Z,24.75
2022-10-24T04:22:07.023Z,24.83
2022-10-24T04:22:28.915Z,25.48
2022-10-24T04:22:51.027Z,25.33
2022-10-24T04:23:12.750Z,24.50
2022-10-24T04:23:38.489Z,24.50
2022-10-24T04:24:00.624Z,23.90
2022-10-24T04:24:22.417Z,24.55
2022-10-24T04:24:44.239Z,24.38
2022-10-24T04:25:06.305Z,25.05
2022-10-24T04:25:28.412Z,24.40
2022-10-24T04:25:50.542Z,23.95
2022-10-24T04:26:14.951Z,24.58
2022-10-24T04:26:36.726Z,24.98
2022-10-24T04:26:58.836Z,24.70
2022-10-24T04:27:20.605Z,24.40
2022-10-24T04:27:42.597Z,24.23
2022-10-24T04:28:04.418Z,25.52
2022-10-24T04:28:27.118Z,24.23
2022-10-24T04:28:49.099Z,24.10
2022-10-24T04:29:11.245Z,24.67
2022-10-24T04:29:33.479Z,24.30
2022-10-24T04:29:55.262Z,24.20
2022-10-24T04:30:17.380Z,25.23
2022-10-24T04:30:39.246Z,24.67
2022-10-24T04:31:01.031Z,24.73
2022-10-24T04:31:23.780Z,24.38
2022-10-24T04:31:45.640Z,24.23
2022-10-24T04:32:07.369Z,24.52
2022-10-24T04:32:29.667Z,24.73
2022-10-24T04:32:51.370Z,25.23
2022-10-24T04:33:13.093Z,24.52
2022-10-24T04:33:36.338Z,23.90
2022-10-24T04:33:58.099Z,24.52
2022-10-24T04:34:20.223Z,25.05
2022-10-24T04:34:42.380Z,25.02
2022-10-24T04:35:05.088Z,24.40
2022-10-24T04:35:27.133Z,23.60
2022-10-24T04:35:50.198Z,23.98
2022-10-24T04:36:12.011Z,23.20
2022-10-24T04:36:34.781Z,23.63
2022-10-24T04:36:56.510Z,23.85
2022-10-24T04:37:18.686Z,24.15
2022-10-24T04:37:40.433Z,24.10
2022-10-24T04:38:02.420Z,24.00
2022-10-24T04:38:24.154Z,24.17
2022-10-24T04:38:45.853Z,24.05
2022-10-24T04:39:07.839Z,24.35
2022-10-24T04:39:29.602Z,24.02
2022-10-24T04:39:53.730Z,24.77
2022-10-24T04:40:15.853Z,24.60
2022-10-24T04:40:37.964Z,24.77
2022-10-24T04:40:59.772Z,24.80
2022-10-24T04:41:21.666Z,24.77
2022-10-24T04:41:43.800Z,24.35
2022-10-24T04:42:05.914Z,24.85
2022-10-24T04:42:28.053Z,25.08
2022-10-24T04:42:49.852Z,24.88
2022-10-24T04:43:11.977Z,24.88
2022-10-24T04:43:33.722Z,24.98
2022-10-24T04:43:55.494Z,25.52
2022-10-24T04:44:17.270Z,25.02
2022-10-24T04:44:39.023Z,24.92
2022-10-24T04:45:01.152Z,25.27
2022-10-24T04:45:22.862Z,25.52
2022-10-24T04:45:44.676Z,26.05
2022-10-24T04:46:07.070Z,25.15
2022-10-24T04:46:28.799Z,25.17
2022-10-24T04:46:51.541Z,26.27
2022-10-24T04:47:13.990Z,26.42
2022-10-24T04:47:36.056Z,25.75
2022-10-24T04:47:58.225Z,25.58
2022-10-24T04:48:20.324Z,25.25
2022-10-24T04:48:42.024Z,25.73
2022-10-24T04:49:04.413Z,25.83
2022-10-24T04:49:26.213Z,26.88
2022-10-24T04:49:48.313Z,28.52
2022-10-24T04:50:10.314Z,40.30
2022-10-24T04:50:32.421Z,41.17
2022-10-24T04:50:54.745Z,44.72
2022-10-24T04:51:19.981Z,41.55
2022-10-24T04:51:44.061Z,37.10
2022-10-24T04:52:06.279Z,32.72
2022-10-24T04:52:28.015Z,34.65
2022-10-24T04:52:49.748Z,33.88
2022-10-24T04:53:12.263Z,32.55
2022-10-24T04:53:34.033Z,47.65
2022-10-24T04:53:55.845Z,46.95
2022-10-24T04:54:17.562Z,34.70
2022-10-24T04:54:39.421Z,42.30
2022-10-24T04:55:01.575Z,41.80
2022-10-24T04:55:23.338Z,33.33
2022-10-24T04:55:45.918Z,29.65
2022-10-24T04:56:08.271Z,28.05
2022-10-24T04:56:30.426Z,28.25
2022-10-24T04:56:52.535Z,27.77
2022-10-24T04:57:14.325Z,29.80
2022-10-24T04:57:36.040Z,31.95
2022-10-24T04:57:57.823Z,44.20
2022-10-24T04:58:20.872Z,38.30
2022-10-24T04:58:42.606Z,32.40
2022-10-24T04:59:04.878Z,32.50
2022-10-24T04:59:26.846Z,29.27
2022-10-24T04:59:49.741Z,28.90
2022-10-24T05:00:12.129Z,33.70
2022-10-24T05:00:33.949Z,28.10
2022-10-24T05:00:55.698Z,28.20
2022-10-24T05:01:18.244Z,27.85
2022-10-24T05:01:40.507Z,27.90
2022-10-24T05:02:02.753Z,29.63
2022-10-24T05:02:24.663Z,32.65
2022-10-24T05:02:46.490Z,31.67
2022-10-24T05:03:08.678Z,30.77
2022-10-24T05:03:30.859Z,29.63
2022-10-24T05:03:52.754Z,29.17
2022-10-24T05:04:14.675Z,33.03
2022-10-24T05:04:36.782Z,32.35
2022-10-24T05:04:58.911Z,33.10
2022-10-24T05:05:21.301Z,33.83
2022-10-24T05:05:43.541Z,56.78
2022-10-24T05:06:05.590Z,75.75
2022-10-24T05:06:27.749Z,48.03
2022-10-24T05:06:49.893Z,39.22
2022-10-24T05:07:11.698Z,29.48
2022-10-24T05:07:33.893Z,28.08
2022-10-24T05:07:56.029Z,30.27
2022-10-24T05:08:18.415Z,29.70
2022-10-24T05:08:40.525Z,33.80
2022-10-24T05:09:02.816Z,33.03
2022-10-24T05:09:24.592Z,67.85
2022-10-24T05:09:46.719Z,62.17
2022-10-24T05:10:09.153Z,58.33
2022-10-24T05:10:31.290Z,41.45
2022-10-24T05:10:53.260Z,36.53
2022-10-24T05:11:14.999Z,37.13
2022-10-24T05:11:37.200Z,29.67
2022-10-24T05:11:59.388Z,28.17
2022-10-24T05:12:21.333Z,36.58
2022-10-24T05:12:44.625Z,30.63
2022-10-24T05:13:07.324Z,29.58
2022-10-24T05:13:31.801Z,28.27
2022-10-24T05:13:56.322Z,26.65
2022-10-24T05:14:18.543Z,31.13
2022-10-24T05:14:40.672Z,31.75
2022-10-24T05:15:02.957Z,29.58
2022-10-24T05:15:25.197Z,33.47